createdAt,value
2024-02-03T00:02:54.707Z,9.2
2024-02-03T00:12:54.951Z,9.1
2024-02-03T00:32:55.327Z,9.2
2024-02-03T00:42:55.526Z,9.3
2024-02-03T00:52:55.715Z,9.3
2024-02-03T01:02:55.894Z,9.4
2024-02-03T01:12:56.122Z,9.5
2024-02-03T01:22:56.289Z,9.5
2024-02-03T01:32:56.580Z,9.5
2024-02-03T01:42:56.700Z,9.5
2024-02-03T01:52:56.899Z,9.5
2024-02-03T02:02:57.095Z,9.5
2024-02-03T02:12:57.312Z,9.5
2024-02-03T02:22:57.506Z,9.6
2024-02-03T02:32:57.743Z,9.6
2024-02-03T02:42:57.928Z,9.6
2024-02-03T02:52:58.094Z,9.6
2024-02-03T03:02:58.303Z,9.6
2024-02-03T03:12:58.527Z,9.6
2024-02-03T03:22:58.738Z,9.6
2024-02-03T03:32:58.998Z,9.6
2024-02-03T03:42:59.117Z,9.5
2024-02-03T03:52:59.316Z,9.3
2024-02-03T04:02:59.515Z,9.3
2024-02-03T04:12:59.733Z,9.2
2024-02-03T04:22:59.907Z,9.1
2024-02-03T04:33:00.188Z,9
2024-02-03T04:43:00.315Z,9.1
2024-02-03T04:53:00.531Z,9.2
2024-02-03T05:03:00.727Z,9.2
2024-02-03T05:13:00.988Z,9.3
2024-02-03T05:23:01.136Z,9.3
2024-02-03T05:33:01.378Z,9.2
2024-02-03T05:43:01.582Z,9.2
2024-02-03T05:53:01.731Z,9.1
2024-02-03T06:03:01.979Z,9.1
2024-02-03T06:13:03.595Z,9.1
2024-02-03T06:23:02.349Z,9.1
2024-02-03T06:33:02.585Z,9.2
2024-02-03T06:43:02.747Z,9.2
2024-02-03T06:53:02.933Z,9.2
2024-02-03T07:03:03.154Z,9.3
2024-02-03T07:13:03.334Z,9.3
2024-02-03T07:23:03.565Z,9.4
2024-02-03T07:33:03.764Z,9.4
2024-02-03T07:43:03.950Z,9.4
2024-02-03T07:53:04.150Z,9.5
2024-02-03T08:03:04.367Z,9.4
2024-02-03T08:13:04.750Z,9.4
2024-02-03T08:23:04.764Z,9.5
2024-02-03T08:33:04.994Z,9.5
2024-02-03T08:43:05.160Z,9.6
2024-02-03T08:53:05.359Z,9.6
2024-02-03T09:03:05.567Z,9.6
2024-02-03T09:13:05.781Z,9.7
2024-02-03T09:23:05.961Z,9.8
2024-02-03T09:33:06.217Z,9.8
2024-02-03T09:43:06.369Z,9.9
2024-02-03T09:53:06.572Z,9.9
2024-02-03T10:13:07.044Z,10
2024-02-03T10:23:07.265Z,10
2024-02-03T10:33:07.499Z,10
2024-02-03T10:43:07.638Z,10
2024-02-03T10:53:07.758Z,10
2024-02-03T11:03:07.979Z,10.1
2024-02-03T11:13:08.187Z,10.1
2024-02-03T11:23:08.368Z,10.1
2024-02-03T11:33:08.616Z,10.1
2024-02-03T11:53:09.015Z,10.1
2024-02-03T12:03:09.242Z,10.1
2024-02-03T12:23:13.470Z,10.2
2024-02-03T12:33:09.857Z,10.2
2024-02-03T12:43:09.979Z,10.2
2024-02-03T12:53:10.184Z,10.3
2024-02-03T13:03:10.444Z,10.3
2024-02-03T13:13:10.590Z,10.3
2024-02-03T13:23:10.778Z,10.3
2024-02-03T13:33:11.009Z,10.3
2024-02-03T13:43:11.257Z,10.4
2024-02-03T13:53:11.378Z,10.4
2024-02-03T14:03:11.584Z,10.3
2024-02-03T14:13:11.813Z,10.3
2024-02-03T14:23:12.040Z,10.3
2024-02-03T14:33:12.199Z,10.3
2024-02-03T14:53:12.599Z,10.2
2024-02-03T15:13:12.998Z,10.2
2024-02-03T15:23:13.180Z,10.2
2024-02-03T15:33:13.481Z,10.2
2024-02-03T15:43:13.651Z,10.2
2024-02-03T15:53:13.786Z,10.1
2024-02-03T16:03:14.005Z,10.1
2024-02-03T16:13:14.362Z,10.1
2024-02-03T16:23:14.393Z,10
2024-02-03T16:33:14.645Z,10
2024-02-03T16:43:14.831Z,10
2024-02-03T16:53:15.004Z,10.1
2024-02-03T17:03:15.270Z,10.1
2024-02-03T17:13:15.418Z,10.1
2024-02-03T17:33:15.970Z,10.2
2024-02-03T17:43:16.076Z,10.2
2024-02-03T17:53:16.267Z,10.2
2024-02-03T18:03:16.586Z,10.3
2024-02-03T18:13:16.611Z,10.3
2024-02-03T18:23:16.835Z,10.3
2024-02-03T18:33:17.050Z,10.4
2024-02-03T18:43:17.220Z,10.3
2024-02-03T18:53:17.406Z,10.3
2024-02-03T19:03:17.698Z,10.3
2024-02-03T19:13:17.815Z,10.4
2024-02-03T19:23:18.069Z,10.3
2024-02-03T19:33:18.365Z,10.3
2024-02-03T19:43:18.440Z,10.4
2024-02-03T19:53:18.647Z,10.4
2024-02-03T20:03:18.896Z,10.4
2024-02-03T20:13:19.161Z,10.4
2024-02-03T20:23:19.214Z,10.4
2024-02-03T20:33:19.535Z,10.4
2024-02-03T20:53:19.832Z,10.4
2024-02-03T21:03:20.248Z,10.4
2024-02-03T21:13:20.279Z,10.5
2024-02-03T21:23:20.432Z,10.5
2024-02-03T21:33:20.750Z,10.4
2024-02-03T21:43:20.828Z,10.4
2024-02-03T22:03:21.276Z,10.3
2024-02-03T22:13:21.433Z,10.4
2024-02-03T22:23:21.653Z,10.4
2024-02-03T22:33:22.012Z,10.4
2024-02-03T22:43:22.027Z,10.4
2024-02-03T22:53:22.211Z,10.4
2024-02-03T23:03:22.472Z,10.4
2024-02-03T23:13:22.665Z,10.4
2024-02-03T23:23:22.831Z,10.4
2024-02-03T23:33:23.114Z,10.4
2024-02-03T23:43:23.227Z,10.4
2024-02-03T23:53:23.445Z,10.4
